createdAt,value
2023-04-09T00:02:49.821Z,97311.19
2023-04-09T00:05:46.649Z,97315.31
2023-04-09T00:08:43.524Z,97315.41
2023-04-09T00:11:40.491Z,97304.84
2023-04-09T00:14:37.462Z,97311.31
2023-04-09T00:17:34.324Z,97310.66
2023-04-09T00:20:31.333Z,97314.09
2023-04-09T00:23:28.170Z,97321.34
2023-04-09T00:26:24.974Z,97318.84
2023-04-09T00:29:21.776Z,97315.69
2023-04-09T00:32:18.567Z,97307.06
2023-04-09T00:35:17.462Z,97304.41
2023-04-09T00:38:14.326Z,97309.47
2023-04-09T00:41:11.537Z,97294.69
2023-04-09T00:44:08.468Z,97305.47
2023-04-09T00:47:05.304Z,97297.59
2023-04-09T00:50:03.073Z,97302.56
2023-04-09T00:53:00.516Z,97303.06
2023-04-09T00:55:58.103Z,97299.22
2023-04-09T00:58:54.974Z,97299.28
2023-04-09T01:01:51.808Z,97305.72
2023-04-09T01:04:50.375Z,97297.47
2023-04-09T01:08:17.840Z,97303.88
2023-04-09T01:12:02.602Z,97297.63
2023-04-09T01:15:13.649Z,97305.09
2023-04-09T01:18:40.103Z,97313.47
2023-04-09T01:21:38.686Z,97304.16
2023-04-09T01:25:19.958Z,97301.22
2023-04-09T01:28:31.589Z,97302.63
2023-04-09T01:31:37.583Z,97307.88
2023-04-09T01:34:36.195Z,97307.44
2023-04-09T01:37:33.507Z,97311.31
2023-04-09T01:40:30.826Z,97304.34
2023-04-09T01:43:28.613Z,97310.44
2023-04-09T01:46:25.978Z,97309.25
2023-04-09T01:49:23.349Z,97305.25
2023-04-09T01:52:20.588Z,97307.91
2023-04-09T01:55:17.504Z,97307.91
2023-04-09T01:58:14.436Z,97309.28
2023-04-09T02:01:22.555Z,97312.66
2023-04-09T02:04:48.214Z,97308.41
2023-04-09T02:07:52.232Z,97303.38
2023-04-09T02:10:55.375Z,97307.78
2023-04-09T02:13:55.729Z,97314.63
2023-04-09T02:16:53.166Z,97300.41
2023-04-09T02:19:50.018Z,97304.66
2023-04-09T02:22:47.000Z,97300.88
2023-04-09T02:25:44.529Z,97308.25
2023-04-09T02:28:41.328Z,97309.84
2023-04-09T02:31:38.148Z,97301.50
2023-04-09T02:34:35.132Z,97308.50
2023-04-09T02:37:31.935Z,97305.50
2023-04-09T02:40:28.864Z,97307.69
2023-04-09T02:43:25.668Z,97296.84
2023-04-09T02:46:22.551Z,97297.94
2023-04-09T02:49:19.415Z,97302.59
2023-04-09T02:52:16.244Z,97300.41
2023-04-09T02:55:13.947Z,97300.63
2023-04-09T02:58:10.766Z,97299.69
2023-04-09T03:01:07.597Z,97292.63
2023-04-09T03:04:04.508Z,97293.66
2023-04-09T03:07:01.411Z,97298.84
2023-04-09T03:09:58.354Z,97294.53
2023-04-09T03:12:55.255Z,97295.44
2023-04-09T03:15:55.681Z,97293.53
2023-04-09T03:18:52.787Z,97283.53
2023-04-09T03:21:51.278Z,97285.47
2023-04-09T03:24:48.092Z,97284.84
2023-04-09T03:27:45.366Z,97279.84
2023-04-09T03:30:42.169Z,97290.38
2023-04-09T03:33:42.201Z,97290.88
2023-04-09T03:36:39.043Z,97286.44
2023-04-09T03:39:35.889Z,97280.09
2023-04-09T03:42:34.927Z,97277.94
2023-04-09T03:45:31.783Z,97286.59
2023-04-09T03:48:28.612Z,97282.44
2023-04-09T03:51:25.438Z,97286.19
2023-04-09T03:54:22.244Z,97284.66
2023-04-09T03:57:19.095Z,97275.91
2023-04-09T04:00:16.197Z,97280.28
2023-04-09T04:03:14.683Z,97280.84
2023-04-09T04:06:11.686Z,97283.47
2023-04-09T04:09:08.482Z,97279.78
2023-04-09T04:12:05.455Z,97273.00
2023-04-09T04:15:02.385Z,97283.81
2023-04-09T04:17:59.275Z,97294.28
2023-04-09T04:20:56.109Z,97290.50
2023-04-09T04:23:52.953Z,97290.25
2023-04-09T04:26:49.762Z,97301.13
2023-04-09T04:29:46.618Z,97312.50
2023-04-09T04:32:43.460Z,97313.22
2023-04-09T04:35:40.388Z,97314.13
2023-04-09T04:38:38.137Z,97310.50
2023-04-09T04:41:34.966Z,97315.97
2023-04-09T04:44:31.799Z,97313.38
2023-04-09T04:47:28.658Z,97320.47
2023-04-09T04:50:25.691Z,97311.16
2023-04-09T04:53:22.487Z,97313.16
2023-04-09T04:56:19.303Z,97318.22
2023-04-09T04:59:16.146Z,97318.22
2023-04-09T05:02:13.016Z,97319.81
2023-04-09T05:05:09.933Z,97319.41
2023-04-09T05:08:06.928Z,97327.38
2023-04-09T05:11:03.734Z,97328.66
2023-04-09T05:14:00.519Z,97334.59
2023-04-09T05:16:57.418Z,97333.56
2023-04-09T05:19:54.984Z,97336.91
2023-04-09T05:22:52.257Z,97334.81
2023-04-09T05:25:50.174Z,97337.00
2023-04-09T05:28:47.363Z,97342.81
2023-04-09T05:31:44.224Z,97344.94
2023-04-09T05:34:41.130Z,97335.94
2023-04-09T05:37:38.100Z,97339.91
2023-04-09T05:40:35.499Z,97341.00
2023-04-09T05:43:32.629Z,97349.03
2023-04-09T05:46:29.475Z,97347.69
2023-04-09T05:49:26.320Z,97355.22
2023-04-09T05:52:23.163Z,97351.84
2023-04-09T05:55:20.063Z,97352.56
2023-04-09T05:58:18.712Z,97350.97
2023-04-09T06:01:15.827Z,97348.00
2023-04-09T06:04:12.761Z,97352.66
2023-04-09T06:07:09.740Z,97347.13
2023-04-09T06:10:07.822Z,97350.88
2023-04-09T06:13:04.722Z,97354.31
2023-04-09T06:16:04.498Z,97350.06
2023-04-09T06:19:01.371Z,97359.22
2023-04-09T06:21:58.194Z,97355.59
2023-04-09T06:24:55.100Z,97354.19
2023-04-09T06:27:52.827Z,97362.19
2023-04-09T06:30:50.037Z,97365.88
2023-04-09T06:33:47.038Z,97367.50
2023-04-09T06:36:44.536Z,97365.69
2023-04-09T06:39:47.590Z,97373.72
2023-04-09T06:42:54.821Z,97367.44
2023-04-09T06:45:52.088Z,97375.06
2023-04-09T06:48:48.938Z,97370.69
2023-04-09T06:51:46.530Z,97378.78
2023-04-09T06:54:43.486Z,97376.91
2023-04-09T06:57:40.464Z,97381.44
2023-04-09T07:00:37.341Z,97376.31
2023-04-09T07:03:34.354Z,97376.47
2023-04-09T07:06:31.294Z,97384.72
2023-04-09T07:09:28.124Z,97382.06
2023-04-09T07:12:35.519Z,97379.94
2023-04-09T07:15:32.536Z,97380.31
2023-04-09T07:18:30.327Z,97381.22
2023-04-09T07:21:28.329Z,97384.44
2023-04-09T07:24:25.217Z,97379.19
2023-04-09T07:27:23.789Z,97374.97
2023-04-09T07:30:20.834Z,97373.72
2023-04-09T07:33:17.653Z,97382.81
2023-04-09T07:36:14.506Z,97380.88
2023-04-09T07:39:11.529Z,97376.66
2023-04-09T07:42:08.358Z,97373.50
2023-04-09T07:45:06.647Z,97376.75
2023-04-09T07:48:03.680Z,97380.22
2023-04-09T07:51:00.539Z,97376.25
2023-04-09T07:53:57.421Z,97375.47
2023-04-09T07:56:54.533Z,97371.28
2023-04-09T07:59:53.394Z,97368.34
2023-04-09T08:02:50.884Z,97375.75
2023-04-09T08:05:47.891Z,97367.50
2023-04-09T08:08:44.814Z,97364.22
2023-04-09T08:11:41.634Z,97364.03
2023-04-09T08:14:38.446Z,97355.47
2023-04-09T08:17:37.259Z,97359.75
2023-04-09T08:20:34.231Z,97344.28
2023-04-09T08:23:31.541Z,97354.81
2023-04-09T08:26:28.479Z,97360.03
2023-04-09T08:29:26.720Z,97355.03
2023-04-09T08:32:23.618Z,97357.75
2023-04-09T08:35:20.528Z,97354.22
2023-04-09T08:38:19.152Z,97356.94
2023-04-09T08:41:24.800Z,97354.88
2023-04-09T08:44:22.152Z,97352.56
2023-04-09T08:47:21.040Z,97348.94
2023-04-09T08:50:18.286Z,97343.50
2023-04-09T08:53:17.542Z,97349.34
2023-04-09T08:56:15.763Z,97346.88
2023-04-09T08:59:19.814Z,97348.28
2023-04-09T09:02:16.779Z,97347.66
2023-04-09T09:05:13.600Z,97353.09
2023-04-09T09:08:14.136Z,97332.69
2023-04-09T09:11:10.962Z,97328.59
2023-04-09T09:14:13.566Z,97334.25
2023-04-09T09:17:10.624Z,97326.25
2023-04-09T09:20:21.007Z,97326.00
2023-04-09T09:23:36.703Z,97326.34
2023-04-09T09:26:38.835Z,97317.81
2023-04-09T09:29:42.131Z,97316.75
2023-04-09T09:32:39.203Z,97313.78
2023-04-09T09:35:51.673Z,97306.53
2023-04-09T09:38:57.156Z,97309.88
2023-04-09T09:42:08.244Z,97310.69
2023-04-09T09:45:19.368Z,97311.72
2023-04-09T09:48:16.438Z,97310.56
2023-04-09T09:51:15.386Z,97320.50
2023-04-09T09:54:13.327Z,97315.28
2023-04-09T09:57:13.574Z,97329.63
2023-04-09T10:00:13.467Z,97327.09
2023-04-09T10:03:30.219Z,97323.72
2023-04-09T10:06:27.974Z,97316.34
2023-04-09T10:09:27.998Z,97317.94
2023-04-09T10:12:26.230Z,97313.81
2023-04-09T10:15:23.527Z,97313.78
2023-04-09T10:18:21.191Z,97317.22
2023-04-09T10:22:01.357Z,97311.47
2023-04-09T10:24:59.870Z,97305.34
2023-04-09T10:28:01.295Z,97302.22
2023-04-09T10:30:59.490Z,97311.50
2023-04-09T10:34:04.423Z,97290.16
2023-04-09T10:37:01.625Z,97286.59
2023-04-09T10:39:58.700Z,97289.22
2023-04-09T10:42:57.598Z,97299.47
2023-04-09T10:45:58.148Z,97287.28
2023-04-09T10:49:19.832Z,97276.94
2023-04-09T10:52:17.463Z,97269.22
2023-04-09T10:55:36.197Z,97255.69
2023-04-09T10:58:34.311Z,97256.47
2023-04-09T11:01:31.240Z,97262.66
2023-04-09T11:05:06.664Z,97274.41
2023-04-09T11:08:09.690Z,97255.44
2023-04-09T11:11:06.615Z,97266.97
2023-04-09T11:14:03.517Z,97274.97
2023-04-09T11:17:02.944Z,97278.13
2023-04-09T11:19:59.769Z,97280.19
2023-04-09T11:22:56.667Z,97278.41
2023-04-09T11:25:54.891Z,97274.63
2023-04-09T11:28:57.382Z,97266.91
2023-04-09T11:31:54.255Z,97268.03
2023-04-09T11:34:52.970Z,97263.00
2023-04-09T11:37:52.215Z,97266.78
2023-04-09T11:40:49.932Z,97277.06
2023-04-09T11:43:46.850Z,97273.47
2023-04-09T11:46:44.601Z,97276.72
2023-04-09T11:49:41.876Z,97269.31
2023-04-09T11:52:39.780Z,97270.19
2023-04-09T11:55:36.611Z,97265.81
2023-04-09T11:58:33.442Z,97260.47
2023-04-09T12:01:33.871Z,97263.47
2023-04-09T12:04:31.129Z,97262.03
2023-04-09T12:07:33.696Z,97270.63
2023-04-09T12:10:33.568Z,97259.50
2023-04-09T12:13:33.864Z,97265.66
2023-04-09T12:16:32.688Z,97257.28
2023-04-09T12:19:29.648Z,97258.00
2023-04-09T12:22:26.981Z,97261.91
2023-04-09T12:25:24.104Z,97253.91
2023-04-09T12:28:21.148Z,97260.63
2023-04-09T12:31:18.107Z,97256.88
2023-04-09T12:34:15.040Z,97254.69
2023-04-09T12:37:11.841Z,97260.53
2023-04-09T12:40:09.216Z,97259.13
2023-04-09T12:43:06.237Z,97261.13
2023-04-09T12:46:03.182Z,97254.44
2023-04-09T12:49:00.051Z,97254.38
2023-04-09T12:51:57.019Z,97249.31
2023-04-09T12:54:53.871Z,97236.53
2023-04-09T12:57:51.826Z,97235.13
2023-04-09T13:00:48.938Z,97246.00
2023-04-09T13:03:45.989Z,97237.22
2023-04-09T13:06:43.032Z,97241.59
2023-04-09T13:09:39.846Z,97241.72
2023-04-09T13:12:36.672Z,97241.13
2023-04-09T13:15:33.530Z,97241.72
2023-04-09T13:18:30.432Z,97245.31
2023-04-09T13:21:27.385Z,97230.53
2023-04-09T13:24:24.208Z,97227.94
2023-04-09T13:27:21.086Z,97231.31
2023-04-09T13:30:17.958Z,97233.47
2023-04-09T13:33:14.771Z,97228.88
2023-04-09T13:36:12.160Z,97229.75
2023-04-09T13:39:09.120Z,97231.09
2023-04-09T13:42:13.230Z,97231.66
2023-04-09T13:45:11.283Z,97217.88
2023-04-09T13:48:08.257Z,97226.88
2023-04-09T13:51:05.801Z,97218.81
2023-04-09T13:54:05.321Z,97219.38
2023-04-09T13:57:03.488Z,97216.66
2023-04-09T14:00:04.149Z,97210.31
2023-04-09T14:03:03.038Z,97209.84
2023-04-09T14:06:00.341Z,97195.38
2023-04-09T14:08:57.268Z,97191.53
2023-04-09T14:11:55.107Z,97194.94
2023-04-09T14:14:52.260Z,97194.94
2023-04-09T14:17:49.160Z,97181.88
2023-04-09T14:20:46.134Z,97180.22
2023-04-09T14:23:42.941Z,97179.41
2023-04-09T14:26:39.747Z,97170.38
2023-04-09T14:29:36.711Z,97164.00
2023-04-09T14:32:33.599Z,97165.31
2023-04-09T14:35:30.462Z,97162.28
2023-04-09T14:38:27.599Z,97161.78
2023-04-09T14:41:24.466Z,97163.19
2023-04-09T14:44:21.487Z,97160.31
2023-04-09T14:47:18.395Z,97171.41
2023-04-09T14:50:15.346Z,97166.41
2023-04-09T14:53:12.498Z,97173.22
2023-04-09T14:56:09.368Z,97171.84
2023-04-09T14:59:06.422Z,97175.03
2023-04-09T15:02:03.400Z,97171.72
2023-04-09T15:05:01.028Z,97170.97
2023-04-09T15:07:58.381Z,97179.16
2023-04-09T15:10:55.269Z,97176.03
2023-04-09T15:13:52.275Z,97172.78
2023-04-09T15:16:49.371Z,97175.56
2023-04-09T15:19:46.836Z,97177.69
2023-04-09T15:22:43.736Z,97182.34
2023-04-09T15:25:40.760Z,97181.66
2023-04-09T15:28:37.614Z,97180.63
2023-04-09T15:31:34.731Z,97179.22
2023-04-09T15:34:31.544Z,97182.03
2023-04-09T15:37:28.378Z,97180.25
2023-04-09T15:40:25.455Z,97188.91
2023-04-09T15:43:23.417Z,97185.22
2023-04-09T15:46:21.214Z,97182.22
2023-04-09T15:49:19.580Z,97174.97
2023-04-09T15:52:16.523Z,97185.44
2023-04-09T15:55:13.353Z,97176.53
2023-04-09T15:58:10.257Z,97178.13
2023-04-09T16:01:08.433Z,97182.41
2023-04-09T16:04:05.302Z,97178.44
2023-04-09T16:07:03.105Z,97181.59
2023-04-09T16:10:01.842Z,97176.06
2023-04-09T16:12:58.742Z,97181.41
2023-04-09T16:15:55.768Z,97181.31
2023-04-09T16:18:52.868Z,97182.53
2023-04-09T16:21:49.912Z,97180.84
2023-04-09T16:24:46.741Z,97184.41
2023-04-09T16:27:43.577Z,97177.66
2023-04-09T16:30:40.815Z,97181.66
2023-04-09T16:33:37.642Z,97181.75
2023-04-09T16:36:37.040Z,97177.66
2023-04-09T16:39:34.001Z,97179.84
2023-04-09T16:42:30.854Z,97183.19
2023-04-09T16:45:28.289Z,97182.94
2023-04-09T16:48:25.522Z,97188.31
2023-04-09T16:51:22.374Z,97184.06
2023-04-09T16:54:19.194Z,97189.34
2023-04-09T16:57:16.511Z,97182.97
2023-04-09T17:00:13.823Z,97181.81
2023-04-09T17:03:10.745Z,97181.28
2023-04-09T17:06:07.751Z,97171.66
2023-04-09T17:09:06.351Z,97181.13
2023-04-09T17:12:03.355Z,97187.59
2023-04-09T17:15:01.119Z,97181.88
2023-04-09T17:17:58.441Z,97187.72
2023-04-09T17:20:55.641Z,97182.78
2023-04-09T17:23:52.511Z,97190.03
2023-04-09T17:26:49.344Z,97193.59
2023-04-09T17:29:46.180Z,97197.69
2023-04-09T17:32:44.087Z,97192.63
2023-04-09T17:35:43.083Z,97189.78
2023-04-09T17:38:39.920Z,97189.31
2023-04-09T17:41:37.607Z,97189.66
2023-04-09T17:44:35.466Z,97183.59
2023-04-09T17:47:32.341Z,97180.66
2023-04-09T17:50:29.151Z,97184.44
2023-04-09T17:53:26.407Z,97187.25
2023-04-09T17:56:23.222Z,97188.94
2023-04-09T17:59:20.557Z,97197.81
2023-04-09T18:02:17.468Z,97202.25
2023-04-09T18:05:14.659Z,97195.09
2023-04-09T18:08:11.547Z,97197.84
2023-04-09T18:11:12.645Z,97206.94
2023-04-09T18:14:10.327Z,97205.97
2023-04-09T18:17:07.138Z,97211.13
2023-04-09T18:20:04.218Z,97209.06
2023-04-09T18:23:01.045Z,97218.69
2023-04-09T18:25:57.895Z,97219.22
2023-04-09T18:28:55.310Z,97224.03
2023-04-09T18:31:53.453Z,97232.31
2023-04-09T18:34:50.415Z,97229.66
2023-04-09T18:37:47.220Z,97227.53
2023-04-09T18:40:44.528Z,97242.44
2023-04-09T18:43:41.362Z,97245.91
2023-04-09T18:46:38.184Z,97250.97
2023-04-09T18:49:38.066Z,97256.00
2023-04-09T18:52:38.162Z,97265.63
2023-04-09T18:55:37.780Z,97277.31
2023-04-09T18:58:34.774Z,97273.28
2023-04-09T19:01:31.658Z,97273.75
2023-04-09T19:04:30.328Z,97276.44
2023-04-09T19:07:27.340Z,97279.03
2023-04-09T19:10:24.188Z,97286.63
2023-04-09T19:13:21.031Z,97287.91
2023-04-09T19:16:19.011Z,97290.44
2023-04-09T19:19:17.404Z,97288.56
2023-04-09T19:22:14.313Z,97291.38
2023-04-09T19:25:11.330Z,97292.97
2023-04-09T19:28:08.238Z,97295.38
2023-04-09T19:31:06.611Z,97302.16
2023-04-09T19:34:03.536Z,97300.88
2023-04-09T19:37:00.841Z,97305.56
2023-04-09T19:40:01.165Z,97304.00
2023-04-09T19:42:57.981Z,97308.06
2023-04-09T19:45:54.824Z,97312.53
2023-04-09T19:48:52.394Z,97318.28
2023-04-09T19:51:49.608Z,97326.00
2023-04-09T19:54:46.525Z,97321.69
2023-04-09T19:57:44.288Z,97315.28
2023-04-09T20:00:41.209Z,97319.22
2023-04-09T20:03:38.247Z,97316.56
2023-04-09T20:06:35.572Z,97325.75
2023-04-09T20:09:32.423Z,97319.41
2023-04-09T20:12:29.642Z,97323.78
2023-04-09T20:15:26.600Z,97327.94
2023-04-09T20:18:23.418Z,97330.41
2023-04-09T20:21:20.248Z,97330.03
2023-04-09T20:24:17.815Z,97321.97
2023-04-09T20:27:14.845Z,97328.31
2023-04-09T20:30:11.927Z,97333.41
2023-04-09T20:33:08.820Z,97337.56
2023-04-09T20:36:17.360Z,97339.16
2023-04-09T20:39:14.248Z,97337.34
2023-04-09T20:42:11.068Z,97330.50
2023-04-09T20:45:09.229Z,97328.16
2023-04-09T20:48:06.702Z,97334.34
2023-04-09T20:51:10.056Z,97337.03
2023-04-09T20:54:06.887Z,97323.53
2023-04-09T20:57:05.610Z,97322.19
2023-04-09T21:00:02.957Z,97321.81
2023-04-09T21:02:59.902Z,97322.03
2023-04-09T21:05:56.847Z,97323.94
2023-04-09T21:08:55.929Z,97328.84
2023-04-09T21:11:53.198Z,97324.72
2023-04-09T21:14:50.276Z,97316.34
2023-04-09T21:17:47.276Z,97322.84
2023-04-09T21:20:46.500Z,97319.44
2023-04-09T21:23:43.342Z,97321.31
2023-04-09T21:26:50.785Z,97322.06
2023-04-09T21:29:48.259Z,97314.91
2023-04-09T21:32:45.167Z,97311.69
2023-04-09T21:35:42.043Z,97310.28
2023-04-09T21:38:38.922Z,97310.66
2023-04-09T21:41:35.950Z,97310.66
2023-04-09T21:44:33.408Z,97307.53
2023-04-09T21:47:30.484Z,97312.81
2023-04-09T21:50:27.310Z,97307.31
2023-04-09T21:53:24.356Z,97309.38
2023-04-09T21:56:21.175Z,97317.00
2023-04-09T21:59:17.961Z,97319.56
2023-04-09T22:02:14.873Z,97329.16
2023-04-09T22:05:12.006Z,97329.91
2023-04-09T22:08:08.938Z,97324.47
2023-04-09T22:11:05.926Z,97328.63
2023-04-09T22:14:02.774Z,97318.84
2023-04-09T22:17:01.621Z,97319.69
2023-04-09T22:19:58.551Z,97314.28
2023-04-09T22:22:55.395Z,97317.56
2023-04-09T22:26:03.431Z,97321.34
2023-04-09T22:29:00.636Z,97316.13
2023-04-09T22:31:58.027Z,97322.50
2023-04-09T22:34:54.939Z,97316.00
2023-04-09T22:37:51.952Z,97323.16
2023-04-09T22:40:49.135Z,97331.75
2023-04-09T22:43:46.004Z,97331.56
2023-04-09T22:46:42.921Z,97340.34
2023-04-09T22:49:39.772Z,97332.81
2023-04-09T22:52:36.581Z,97338.16
2023-04-09T22:55:33.389Z,97338.16
2023-04-09T22:58:30.366Z,97334.41
2023-04-09T23:01:27.644Z,97338.22
2023-04-09T23:04:25.347Z,97332.00
2023-04-09T23:07:22.171Z,97332.56
2023-04-09T23:10:19.220Z,97329.75
2023-04-09T23:13:18.016Z,97327.09
2023-04-09T23:16:14.884Z,97327.16
2023-04-09T23:19:11.748Z,97329.59
2023-04-09T23:22:08.552Z,97328.03
2023-04-09T23:25:05.964Z,97326.72
2023-04-09T23:28:03.180Z,97333.59
2023-04-09T23:31:00.243Z,97323.81
2023-04-09T23:33:57.071Z,97335.81
2023-04-09T23:36:53.870Z,97339.56
2023-04-09T23:39:50.727Z,97334.69
2023-04-09T23:42:48.965Z,97327.44
2023-04-09T23:45:45.804Z,97335.16
2023-04-09T23:48:42.629Z,97321.34
2023-04-09T23:51:39.430Z,97320.09
2023-04-09T23:54:36.246Z,97315.97
2023-04-09T23:57:33.050Z,97319.41
